createdAt,value
2022-11-25T00:00:39.467Z,2.93
2022-11-25T00:05:40.990Z,2.57
2022-11-25T00:10:42.489Z,2.90
2022-11-25T00:15:44.077Z,2.63
2022-11-25T00:20:45.657Z,2.40
2022-11-25T00:25:47.435Z,2.60
2022-11-25T00:30:49.001Z,2.80
2022-11-25T00:35:50.608Z,2.47
2022-11-25T00:41:13.887Z,2.50
2022-11-25T00:46:15.600Z,2.70
2022-11-25T00:51:17.482Z,2.90
2022-11-25T00:56:19.101Z,3.00
2022-11-25T01:01:21.000Z,3.07
2022-11-25T01:06:22.741Z,3.10
2022-11-25T01:11:24.399Z,3.60
2022-11-25T01:16:26.452Z,3.20
2022-11-25T01:21:30.866Z,3.17
2022-11-25T01:26:33.223Z,2.97
2022-11-25T01:31:36.527Z,3.03
2022-11-25T01:36:38.290Z,2.87
2022-11-25T01:41:39.974Z,2.67
2022-11-25T01:47:06.631Z,2.77
2022-11-25T01:52:10.248Z,2.97
2022-11-25T01:57:19.961Z,2.77
2022-11-25T02:02:22.155Z,2.40
2022-11-25T02:07:35.092Z,2.73
2022-11-25T02:12:38.393Z,2.40
2022-11-25T02:17:41.234Z,2.30
2022-11-25T02:22:54.812Z,2.50
2022-11-25T02:28:00.842Z,2.00
2022-11-25T02:33:02.831Z,2.20
2022-11-25T02:38:09.333Z,3.00
2022-11-25T02:43:12.423Z,2.10
2022-11-25T02:48:14.200Z,2.50
2022-11-25T02:53:16.576Z,2.07
2022-11-25T02:58:18.663Z,2.07
2022-11-25T03:03:20.404Z,2.40
2022-11-25T03:08:22.222Z,2.03
2022-11-25T03:13:23.960Z,1.90
2022-11-25T03:18:25.915Z,2.20
2022-11-25T03:23:27.534Z,2.00
2022-11-25T03:28:29.228Z,2.20
2022-11-25T03:33:32.362Z,2.00
2022-11-25T03:38:34.009Z,2.77
2022-11-25T03:43:35.955Z,2.20
2022-11-25T03:48:37.928Z,2.40
2022-11-25T03:53:39.856Z,2.13
2022-11-25T03:58:43.504Z,2.00
2022-11-25T04:03:46.392Z,1.63
2022-11-25T04:08:47.986Z,2.13
2022-11-25T04:13:50.095Z,1.80
2022-11-25T04:18:52.682Z,1.97
2022-11-25T04:23:54.287Z,2.10
2022-11-25T04:28:55.996Z,1.90
2022-11-25T04:33:58.607Z,2.00
2022-11-25T04:39:00.296Z,2.00
2022-11-25T04:44:02.678Z,2.00
2022-11-25T04:49:04.636Z,2.20
2022-11-25T04:54:07.140Z,2.10
2022-11-25T04:59:29.076Z,2.37
2022-11-25T05:04:31.060Z,2.80
2022-11-25T05:09:33.040Z,2.43
2022-11-25T05:14:57.900Z,2.37
2022-11-25T05:20:00.792Z,2.63
2022-11-25T05:25:06.084Z,2.33
2022-11-25T05:30:11.722Z,2.93
2022-11-25T05:35:13.541Z,2.17
2022-11-25T05:40:16.261Z,2.33
2022-11-25T05:45:38.875Z,2.83
2022-11-25T05:50:42.944Z,2.93
2022-11-25T05:55:59.928Z,2.50
2022-11-25T06:01:20.161Z,2.70
2022-11-25T06:06:23.148Z,2.57
2022-11-25T06:11:25.683Z,2.40
2022-11-25T06:16:28.434Z,2.83
2022-11-25T06:21:45.187Z,2.80
2022-11-25T06:26:47.957Z,3.23
2022-11-25T06:31:50.140Z,3.03
2022-11-25T06:37:08.969Z,2.93
2022-11-25T06:42:11.324Z,3.27
2022-11-25T06:47:13.225Z,2.80
2022-11-25T06:52:14.863Z,2.77
2022-11-25T06:57:18.048Z,3.07
2022-11-25T07:02:19.667Z,2.70
2022-11-25T07:07:21.334Z,3.00
2022-11-25T07:12:23.051Z,3.27
2022-11-25T07:17:24.718Z,3.00
2022-11-25T07:22:26.439Z,2.50
2022-11-25T07:27:28.092Z,2.70
2022-11-25T07:32:33.369Z,2.80
2022-11-25T07:37:35.128Z,3.33
2022-11-25T07:42:36.822Z,2.73
2022-11-25T07:47:39.369Z,2.30
2022-11-25T07:52:41.370Z,2.73
2022-11-25T07:57:43.951Z,2.90
2022-11-25T08:02:45.765Z,3.13
2022-11-25T08:07:47.648Z,3.30
2022-11-25T08:12:49.310Z,2.93
2022-11-25T08:17:52.677Z,2.80
2022-11-25T08:22:54.554Z,2.93
2022-11-25T08:27:56.136Z,4.03
2022-11-25T08:32:58.819Z,3.30
2022-11-25T08:38:00.603Z,3.40
2022-11-25T08:43:03.152Z,3.30
2022-11-25T08:48:04.896Z,3.27
2022-11-25T08:53:06.415Z,3.20
2022-11-25T08:58:10.933Z,3.50
2022-11-25T09:03:12.867Z,2.60
2022-11-25T09:08:14.691Z,2.57
2022-11-25T09:13:16.476Z,2.73
2022-11-25T09:18:20.568Z,2.57
2022-11-25T09:23:23.404Z,2.07
2022-11-25T09:28:26.208Z,1.90
2022-11-25T09:33:27.897Z,2.30
2022-11-25T09:38:29.683Z,2.43
2022-11-25T09:44:01.974Z,1.70
2022-11-25T09:49:22.060Z,2.00
2022-11-25T09:54:30.058Z,2.17
2022-11-25T09:59:43.877Z,1.93
2022-11-25T10:04:58.468Z,1.70
2022-11-25T10:10:01.825Z,2.00
2022-11-25T10:15:08.086Z,2.17
2022-11-25T10:20:17.467Z,1.90
2022-11-25T10:25:25.079Z,2.57
2022-11-25T10:30:37.580Z,1.67
2022-11-25T10:35:43.623Z,1.90
2022-11-25T10:40:48.890Z,2.00
2022-11-25T10:46:22.187Z,1.70
2022-11-25T10:51:46.569Z,1.70
2022-11-25T10:57:01.591Z,1.83
2022-11-25T11:02:23.438Z,2.10
2022-11-25T11:07:28.032Z,1.80
2022-11-25T11:12:29.949Z,1.70
2022-11-25T11:17:37.033Z,1.57
2022-11-25T11:22:47.178Z,1.83
2022-11-25T11:27:49.112Z,1.50
2022-11-25T11:33:05.402Z,1.30
2022-11-25T11:38:19.548Z,1.50
2022-11-25T11:44:00.239Z,2.20
2022-11-25T11:49:30.517Z,1.40
2022-11-25T11:54:36.364Z,1.50
2022-11-25T11:59:49.981Z,1.30
2022-11-25T12:05:09.633Z,1.47
2022-11-25T12:10:17.551Z,1.50
2022-11-25T12:15:32.519Z,1.33
2022-11-25T12:20:57.564Z,1.57
2022-11-25T12:26:03.286Z,1.60
2022-11-25T12:31:24.961Z,1.90
2022-11-25T12:36:38.340Z,2.03
2022-11-25T12:41:43.120Z,1.77
2022-11-25T12:46:47.370Z,1.60
2022-11-25T12:52:20.048Z,1.80
2022-11-25T12:57:50.368Z,1.80
2022-11-25T13:03:15.027Z,1.43
2022-11-25T13:08:48.734Z,1.50
2022-11-25T13:14:23.268Z,1.47
2022-11-25T13:19:25.172Z,1.53
2022-11-25T13:24:48.252Z,1.70
2022-11-25T13:29:53.896Z,1.20
2022-11-25T13:35:24.545Z,1.67
2022-11-25T13:40:26.352Z,1.77
2022-11-25T13:45:34.091Z,1.57
2022-11-25T13:50:55.335Z,2.30
2022-11-25T13:56:26.063Z,1.43
2022-11-25T14:01:30.285Z,1.83
2022-11-25T14:06:52.569Z,1.90
2022-11-25T14:12:31.454Z,1.70
2022-11-25T14:17:51.132Z,1.40
2022-11-25T14:23:12.164Z,1.50
2022-11-25T14:28:33.679Z,1.60
2022-11-25T14:33:43.829Z,2.00
2022-11-25T14:38:50.305Z,1.70
2022-11-25T14:43:55.805Z,1.50
2022-11-25T14:48:59.247Z,1.50
2022-11-25T14:54:01.192Z,1.60
2022-11-25T14:59:03.096Z,1.30
2022-11-25T15:04:05.873Z,1.60
2022-11-25T15:09:32.543Z,1.67
2022-11-25T15:14:36.608Z,2.10
2022-11-25T15:19:38.463Z,1.90
2022-11-25T15:24:42.862Z,1.90
2022-11-25T15:29:45.702Z,1.83
2022-11-25T15:34:48.728Z,2.80
2022-11-25T15:39:51.200Z,2.50
2022-11-25T15:45:06.928Z,2.23
2022-11-25T15:50:24.906Z,2.17
2022-11-25T15:55:32.212Z,2.57
2022-11-25T16:00:33.756Z,1.90
2022-11-25T16:05:38.337Z,1.70
2022-11-25T16:10:45.890Z,2.13
2022-11-25T16:15:53.790Z,1.83
2022-11-25T16:20:57.468Z,1.57
2022-11-25T16:26:14.071Z,1.80
2022-11-25T16:31:16.789Z,2.00
2022-11-25T16:36:18.707Z,1.80
2022-11-25T16:41:23.762Z,1.97
2022-11-25T16:46:25.364Z,2.27
2022-11-25T16:51:27.021Z,2.10
2022-11-25T16:56:28.669Z,2.50
2022-11-25T17:01:30.997Z,2.47
2022-11-25T17:06:32.662Z,2.10
2022-11-25T17:11:43.306Z,2.20
2022-11-25T17:16:47.819Z,2.83
2022-11-25T17:21:49.434Z,2.90
2022-11-25T17:26:55.836Z,2.90
2022-11-25T17:31:58.729Z,2.60
2022-11-25T17:37:00.466Z,2.70
2022-11-25T17:42:02.749Z,2.87
2022-11-25T17:47:11.748Z,2.83
2022-11-25T17:52:13.323Z,3.07
2022-11-25T17:57:17.553Z,2.93
2022-11-25T18:02:20.978Z,2.87
2022-11-25T18:07:23.118Z,3.13
2022-11-25T18:12:30.778Z,3.07
2022-11-25T18:17:32.452Z,3.00
2022-11-25T18:22:34.230Z,2.70
2022-11-25T18:27:36.101Z,3.03
2022-11-25T18:32:37.930Z,3.13
2022-11-25T18:37:39.524Z,3.40
2022-11-25T18:42:43.000Z,4.03
2022-11-25T18:47:44.591Z,3.33
2022-11-25T18:52:46.620Z,2.93
2022-11-25T18:57:51.980Z,2.93
2022-11-25T19:02:53.557Z,3.30
2022-11-25T19:07:56.006Z,3.23
2022-11-25T19:13:02.718Z,3.97
2022-11-25T19:18:06.715Z,3.70
2022-11-25T19:23:17.235Z,3.37
2022-11-25T19:28:19.197Z,3.60
2022-11-25T19:33:27.196Z,3.33
2022-11-25T19:38:29.743Z,3.20
2022-11-25T19:43:31.442Z,2.80
2022-11-25T19:48:35.764Z,2.70
2022-11-25T19:53:37.472Z,3.43
2022-11-25T19:58:39.119Z,3.10
2022-11-25T20:03:47.749Z,3.10
2022-11-25T20:08:49.900Z,3.83
2022-11-25T20:13:52.791Z,3.77
2022-11-25T20:18:54.424Z,3.80
2022-11-25T20:23:56.272Z,5.30
2022-11-25T20:28:57.990Z,4.90
2022-11-25T20:33:59.636Z,5.83
2022-11-25T20:39:02.316Z,8.23
2022-11-25T20:44:03.976Z,7.53
2022-11-25T20:49:20.015Z,7.53
2022-11-25T20:54:24.036Z,7.97
2022-11-25T20:59:25.776Z,7.67
2022-11-25T21:04:27.459Z,6.40
2022-11-25T21:09:32.861Z,5.83
2022-11-25T21:14:34.654Z,6.63
2022-11-25T21:19:36.350Z,5.80
2022-11-25T21:24:41.015Z,8.50
2022-11-25T21:29:43.906Z,7.43
2022-11-25T21:34:45.621Z,7.27
2022-11-25T21:39:47.235Z,5.30
2022-11-25T21:44:50.092Z,6.40
2022-11-25T21:49:52.096Z,5.40
2022-11-25T21:54:53.620Z,4.83
2022-11-25T21:59:55.707Z,4.33
2022-11-25T22:04:58.635Z,4.27
2022-11-25T22:10:00.117Z,4.67
2022-11-25T22:15:02.245Z,4.20
2022-11-25T22:20:04.772Z,4.63
2022-11-25T22:25:06.781Z,4.30
2022-11-25T22:30:17.323Z,4.57
2022-11-25T22:35:20.298Z,6.83
2022-11-25T22:40:22.708Z,5.63
2022-11-25T22:45:32.560Z,5.80
2022-11-25T22:50:34.678Z,6.10
2022-11-25T22:55:36.248Z,5.10
2022-11-25T23:00:44.852Z,4.90
2022-11-25T23:05:47.493Z,5.47
2022-11-25T23:10:49.409Z,5.27
2022-11-25T23:15:55.931Z,4.57
2022-11-25T23:20:58.571Z,5.33
2022-11-25T23:26:00.132Z,4.63
2022-11-25T23:31:02.563Z,5.50
2022-11-25T23:36:11.216Z,5.23
2022-11-25T23:41:20.751Z,5.33
2022-11-25T23:46:24.863Z,4.67
2022-11-25T23:51:27.526Z,5.57
2022-11-25T23:56:29.051Z,5.37
